Union City, TN

03:07 PM CST am 23. Januar 2017 (GMT -0600)
North 2nd | | Change Station

Höhe 362 ft 36.43 °N, 89.06 °W | Updated 11 seconds ago

Bedeckt
Bedeckt
46.4 °F
gefühlte 41 °F
N
12.0
Wind Wechselnd Wind aus Nordwest

Heute
Max. -- | schwach -- °F
--% Regenrisiko
Gestern
Max. -- | schwach -- °F
Precip. -- inch
Druck 29.78 inch
Sichtweite 10.0 Meilen
Wolken Bedeckt 2300 ft
Windchill 41 °F
Taupunkt 38 °F
Feuchtigkeit 75%
Regen 0.00 inch
Schneehöhe Nicht verfügbar..
7:03 AM 5:13 PM
Letztes Viertel, 16% visible
METAR KUCY 232055Z AUTO 32013KT 10SM OVC023 07/03 A2978 RMK
Druck 29.78 inch
Sichtweite 10.0 Meilen
Wolken Bedeckt 2300 ft
Windchill 41 °F
Taupunkt 38 °F
Feuchtigkeit 75%
Regen 0.00 inch
Schneehöhe Nicht verfügbar..
7:03 AM 5:13 PM
Letztes Viertel, 16% visible
METAR KUCY 232055Z AUTO 32013KT 10SM OVC023 07/03 A2978 RMK

Get Your Daily Forecast Email!

Thanks for signing up!

Be on the lookout for a verification email in your inbox.

You'll start receiving the daily forecast at 8 AM.

×

10-Day Weather Forecast

Almanac

Astronomie

Jan. 23, 2017 Aufgang Untergang
Genaue Zeit
Bürgerliche Dämmerung
Nautische Dämmerung
Astronomische Dämmerung
Mond
Länge des sichtbaren Lichts
Tageslänge
Tomorrow will be .
, % of the Moon is Illuminated

Heutige Rekorde

State Highs State Lows

Community

WunderPhotos

Upload Photos

1,962,540 Fotos hochgeladen!

WunderBlog® & News

Nearby

Luftqualität

  Luftqualität LQ Index Schadstoff
Not available.

Schneehöhe

Station Depth Höhe

Erdbebenaktivität

Stadt Distance Mag. Time & Date
Minimum magnitude displayed is 2.5.

küstennahe Wassertemperaturen

Ort Temperatur

Stations

Wetterstationen in der Umgebung

Stationsstandort Temp. Windchill Taupunkt Feuchtigkeit Wind Precip. Höhe Aktualisiert Art
                   

Watches & Warnings

There are currently no watches in effect.